createdAt,value
2022-12-12T00:02:02.612Z,100336.81
2022-12-12T00:04:28.967Z,100338.00
2022-12-12T00:06:55.334Z,100330.06
2022-12-12T00:09:21.682Z,100331.47
2022-12-12T00:11:48.038Z,100331.41
2022-12-12T00:14:14.378Z,100322.41
2022-12-12T00:16:40.759Z,100330.38
2022-12-12T00:19:07.131Z,100327.91
2022-12-12T00:21:33.590Z,100324.28
2022-12-12T00:23:59.945Z,100333.44
2022-12-12T00:26:31.616Z,100343.06
2022-12-12T00:28:59.017Z,100336.09
2022-12-12T00:31:26.054Z,100340.81
2022-12-12T00:33:52.526Z,100335.88
2022-12-12T00:36:21.457Z,100334.16
2022-12-12T00:38:48.105Z,100335.31
2022-12-12T00:41:14.636Z,100337.13
2022-12-12T00:43:41.066Z,100342.97
2022-12-12T00:46:07.850Z,100334.59
2022-12-12T00:48:34.652Z,100337.44
2022-12-12T00:51:07.546Z,100340.00
2022-12-12T00:53:33.915Z,100344.44
2022-12-12T00:56:00.414Z,100341.81
2022-12-12T00:58:27.239Z,100342.13
2022-12-12T01:00:53.868Z,100342.78
2022-12-12T01:03:21.109Z,100347.22
2022-12-12T01:05:47.612Z,100344.13
2022-12-12T01:08:14.032Z,100348.41
2022-12-12T01:10:40.420Z,100356.47
2022-12-12T01:13:06.819Z,100351.28
2022-12-12T01:15:33.236Z,100352.81
2022-12-12T01:17:59.635Z,100365.25
2022-12-12T01:20:28.396Z,100354.81
2022-12-12T01:22:54.847Z,100364.25
2022-12-12T01:25:21.312Z,100359.72
2022-12-12T01:27:47.854Z,100361.38
2022-12-12T01:30:16.324Z,100359.06
2022-12-12T01:32:42.703Z,100353.81
2022-12-12T01:35:09.688Z,100356.53
2022-12-12T01:37:36.887Z,100369.69
2022-12-12T01:40:05.421Z,100367.53
2022-12-12T01:42:32.080Z,100372.88
2022-12-12T01:44:58.452Z,100375.00
2022-12-12T01:47:25.975Z,100371.81
2022-12-12T01:50:03.507Z,100374.59
2022-12-12T01:52:34.528Z,100375.53
2022-12-12T01:55:03.631Z,100373.78
2022-12-12T01:57:37.282Z,100372.97
2022-12-12T02:00:06.163Z,100368.63
2022-12-12T02:02:32.611Z,100372.97
2022-12-12T02:05:00.277Z,100380.00
2022-12-12T02:07:26.647Z,100378.94
2022-12-12T02:09:53.019Z,100381.66
2022-12-12T02:12:19.399Z,100382.75
2022-12-12T02:14:48.788Z,100388.66
2022-12-12T02:17:28.924Z,100391.38
2022-12-12T02:20:14.062Z,100395.28
2022-12-12T02:23:02.116Z,100384.38
2022-12-12T02:25:36.641Z,100384.63
2022-12-12T02:28:21.338Z,100391.53
2022-12-12T02:31:32.332Z,100390.31
2022-12-12T02:34:02.334Z,100383.81
2022-12-12T02:36:59.639Z,100382.66
2022-12-12T02:39:44.843Z,100389.13
2022-12-12T02:42:54.050Z,100385.03
2022-12-12T02:45:30.193Z,100380.38
2022-12-12T02:48:02.926Z,100383.97
2022-12-12T02:50:31.035Z,100390.31
2022-12-12T02:52:58.929Z,100391.34
2022-12-12T02:55:25.333Z,100389.47
2022-12-12T02:57:52.210Z,100395.28
2022-12-12T03:00:19.395Z,100402.78
2022-12-12T03:03:25.229Z,100394.66
2022-12-12T03:06:25.723Z,100400.91
2022-12-12T03:09:30.306Z,100399.91
2022-12-12T03:12:08.019Z,100399.75
2022-12-12T03:14:43.153Z,100400.22
2022-12-12T03:17:18.042Z,100394.09
2022-12-12T03:20:07.098Z,100394.34
2022-12-12T03:23:15.507Z,100394.16
2022-12-12T03:25:54.167Z,100406.91
2022-12-12T03:28:25.715Z,100400.63
2022-12-12T03:30:55.202Z,100405.66
2022-12-12T03:33:36.160Z,100396.88
2022-12-12T03:36:08.101Z,100393.16
2022-12-12T03:38:38.680Z,100395.41
2022-12-12T03:41:09.117Z,100387.91
2022-12-12T03:43:39.609Z,100389.63
2022-12-12T03:46:26.324Z,100386.13
2022-12-12T03:49:00.030Z,100388.91
2022-12-12T03:51:29.156Z,100386.19
2022-12-12T03:54:08.823Z,100388.16
2022-12-12T03:56:42.885Z,100388.50
2022-12-12T03:59:27.137Z,100382.09
2022-12-12T04:02:32.044Z,100388.41
2022-12-12T04:05:18.444Z,100398.59
2022-12-12T04:07:49.537Z,100395.91
2022-12-12T04:10:34.580Z,100396.72
2022-12-12T04:13:08.212Z,100397.78
2022-12-12T04:15:54.612Z,100398.34
2022-12-12T04:18:26.901Z,100385.94
2022-12-12T04:21:14.779Z,100394.16
2022-12-12T04:23:59.255Z,100405.91
2022-12-12T04:26:39.112Z,100399.56
2022-12-12T04:29:33.565Z,100396.78
2022-12-12T04:32:06.079Z,100402.88
2022-12-12T04:34:40.525Z,100408.38
2022-12-12T04:37:08.323Z,100410.34
2022-12-12T04:39:35.669Z,100400.22
2022-12-12T04:42:05.088Z,100405.72
2022-12-12T04:44:33.040Z,100400.59
2022-12-12T04:47:01.139Z,100407.22
2022-12-12T04:49:29.276Z,100404.09
2022-12-12T04:52:02.820Z,100412.66
2022-12-12T04:54:39.859Z,100418.19
2022-12-12T04:57:08.734Z,100419.88
2022-12-12T04:59:35.530Z,100419.69
2022-12-12T05:02:04.988Z,100424.81
2022-12-12T05:04:38.154Z,100426.19
2022-12-12T05:07:11.155Z,100432.38
2022-12-12T05:09:37.656Z,100442.16
2022-12-12T05:12:04.378Z,100435.47
2022-12-12T05:14:31.452Z,100429.00
2022-12-12T05:17:02.446Z,100430.38
2022-12-12T05:19:28.887Z,100432.53
2022-12-12T05:21:55.252Z,100434.50
2022-12-12T05:24:21.619Z,100432.78
2022-12-12T05:26:48.094Z,100433.34
2022-12-12T05:29:14.496Z,100432.28
2022-12-12T05:31:40.839Z,100426.91
2022-12-12T05:34:07.227Z,100421.09
2022-12-12T05:36:33.591Z,100433.50
2022-12-12T05:39:00.001Z,100431.53
2022-12-12T05:41:26.443Z,100431.38
2022-12-12T05:43:52.803Z,100439.94
2022-12-12T05:46:19.223Z,100437.97
2022-12-12T05:48:50.367Z,100435.47
2022-12-12T05:51:17.896Z,100442.31
2022-12-12T05:53:45.107Z,100438.59
2022-12-12T05:56:12.484Z,100438.13
2022-12-12T05:58:43.005Z,100438.69
2022-12-12T06:01:09.716Z,100443.22
2022-12-12T06:03:36.331Z,100443.53
2022-12-12T06:06:02.965Z,100445.84
2022-12-12T06:08:29.726Z,100450.13
2022-12-12T06:10:56.255Z,100457.84
2022-12-12T06:13:22.625Z,100460.66
2022-12-12T06:15:49.049Z,100460.19
2022-12-12T06:18:15.505Z,100461.34
2022-12-12T06:20:41.874Z,100465.97
2022-12-12T06:23:08.230Z,100466.19
2022-12-12T06:25:34.596Z,100460.72
2022-12-12T06:28:00.977Z,100458.72
2022-12-12T06:30:27.412Z,100459.91
2022-12-12T06:32:53.822Z,100454.94
2022-12-12T06:35:20.256Z,100454.88
2022-12-12T06:37:48.345Z,100460.22
2022-12-12T06:40:15.408Z,100457.03
2022-12-12T06:42:47.709Z,100457.59
2022-12-12T06:45:15.254Z,100461.34
2022-12-12T06:47:42.019Z,100458.97
2022-12-12T06:50:08.815Z,100464.38
2022-12-12T06:52:35.182Z,100461.84
2022-12-12T06:55:01.592Z,100473.44
2022-12-12T06:57:28.618Z,100472.31
2022-12-12T06:59:55.116Z,100475.53
2022-12-12T07:02:29.055Z,100473.56
2022-12-12T07:04:56.365Z,100468.59
2022-12-12T07:07:22.765Z,100467.38
2022-12-12T07:09:49.178Z,100467.72
2022-12-12T07:12:15.567Z,100466.31
2022-12-12T07:14:42.000Z,100473.97
2022-12-12T07:17:08.419Z,100473.00
2022-12-12T07:19:34.821Z,100471.34
2022-12-12T07:22:07.513Z,100473.03
2022-12-12T07:24:36.015Z,100469.94
2022-12-12T07:27:02.426Z,100468.94
2022-12-12T07:29:28.864Z,100477.94
2022-12-12T07:31:55.290Z,100477.69
2022-12-12T07:34:21.714Z,100481.19
2022-12-12T07:36:48.108Z,100481.19
2022-12-12T07:39:20.169Z,100480.38
2022-12-12T07:41:47.239Z,100483.66
2022-12-12T07:44:13.596Z,100483.66
2022-12-12T07:46:40.030Z,100491.06
2022-12-12T07:49:06.551Z,100499.13
2022-12-12T07:51:32.991Z,100494.66
2022-12-12T07:53:59.374Z,100497.06
2022-12-12T07:56:25.790Z,100498.13
2022-12-12T07:58:53.413Z,100504.81
2022-12-12T08:01:22.210Z,100501.00
2022-12-12T08:03:49.123Z,100500.09
2022-12-12T08:06:18.913Z,100505.38
2022-12-12T08:08:45.964Z,100505.38
2022-12-12T08:11:14.163Z,100505.94
2022-12-12T08:13:41.316Z,100504.38
2022-12-12T08:16:12.243Z,100506.13
2022-12-12T08:18:38.657Z,100509.56
2022-12-12T08:21:10.456Z,100509.31
2022-12-12T08:23:37.570Z,100506.72
2022-12-12T08:26:14.862Z,100510.00
2022-12-12T08:28:41.914Z,100509.81
2022-12-12T08:31:08.908Z,100514.75
2022-12-12T08:33:35.356Z,100512.38
2022-12-12T08:36:11.591Z,100510.41
2022-12-12T08:38:37.956Z,100518.88
2022-12-12T08:41:04.403Z,100521.13
2022-12-12T08:43:30.758Z,100517.53
2022-12-12T08:46:01.507Z,100523.31
2022-12-12T08:48:28.232Z,100527.28
2022-12-12T08:50:54.756Z,100525.28
2022-12-12T08:53:21.123Z,100531.38
2022-12-12T08:55:47.529Z,100527.13
2022-12-12T08:58:13.948Z,100536.06
2022-12-12T09:00:40.503Z,100537.28
2022-12-12T09:03:06.934Z,100538.78
2022-12-12T09:05:33.969Z,100543.28
2022-12-12T09:08:00.387Z,100541.31
2022-12-12T09:10:27.744Z,100541.00
2022-12-12T09:12:54.902Z,100545.13
2022-12-12T09:15:21.559Z,100556.72
2022-12-12T09:17:47.959Z,100551.31
2022-12-12T09:20:14.314Z,100551.63
2022-12-12T09:22:40.667Z,100550.38
2022-12-12T09:25:07.280Z,100552.25
2022-12-12T09:27:33.692Z,100553.97
2022-12-12T09:30:00.066Z,100553.00
2022-12-12T09:32:26.518Z,100556.06
2022-12-12T09:34:52.897Z,100551.44
2022-12-12T09:37:19.630Z,100557.28
2022-12-12T09:39:45.991Z,100557.94
2022-12-12T09:42:23.503Z,100562.31
2022-12-12T09:44:51.473Z,100546.94
2022-12-12T09:47:25.501Z,100546.84
2022-12-12T09:49:54.269Z,100550.06
2022-12-12T09:52:31.126Z,100552.38
2022-12-12T09:54:59.453Z,100556.22
2022-12-12T09:57:45.874Z,100553.25
2022-12-12T10:00:14.554Z,100560.75
2022-12-12T10:02:56.193Z,100562.22
2022-12-12T10:05:36.923Z,100558.63
2022-12-12T10:08:22.721Z,100563.13
2022-12-12T10:10:52.159Z,100558.94
2022-12-12T10:13:24.971Z,100551.94
2022-12-12T10:15:54.232Z,100550.75
2022-12-12T10:18:23.604Z,100547.31
2022-12-12T10:20:52.325Z,100552.94
2022-12-12T10:23:53.514Z,100540.69
2022-12-12T10:26:28.506Z,100553.25
2022-12-12T10:28:58.796Z,100546.72
2022-12-12T10:31:25.127Z,100541.81
2022-12-12T10:34:23.731Z,100544.75
2022-12-12T10:36:53.448Z,100545.94
2022-12-12T10:39:28.795Z,100545.81
2022-12-12T10:42:14.466Z,100552.38
2022-12-12T10:44:56.189Z,100539.41
2022-12-12T10:47:22.954Z,100549.06
2022-12-12T10:49:51.135Z,100535.13
2022-12-12T10:52:20.441Z,100533.44
2022-12-12T10:54:51.165Z,100532.53
2022-12-12T10:57:29.061Z,100544.78
2022-12-12T10:59:57.755Z,100538.78
2022-12-12T11:02:40.934Z,100538.47
2022-12-12T11:05:13.897Z,100537.88
2022-12-12T11:07:46.732Z,100533.97
2022-12-12T11:10:34.363Z,100528.13
2022-12-12T11:13:10.258Z,100530.31
2022-12-12T11:15:41.052Z,100528.94
2022-12-12T11:18:14.577Z,100533.50
2022-12-12T11:21:05.678Z,100532.72
2022-12-12T11:23:33.455Z,100535.97
2022-12-12T11:26:14.220Z,100533.34
2022-12-12T11:28:40.694Z,100527.19
2022-12-12T11:31:28.577Z,100526.72
2022-12-12T11:33:58.272Z,100524.63
2022-12-12T11:36:39.450Z,100520.38
2022-12-12T11:39:37.357Z,100513.72
2022-12-12T11:42:06.126Z,100517.81
2022-12-12T11:44:37.146Z,100518.25
2022-12-12T11:47:18.735Z,100510.63
2022-12-12T11:50:16.315Z,100507.50
2022-12-12T11:52:42.774Z,100502.00
2022-12-12T11:55:17.512Z,100509.00
2022-12-12T11:57:56.617Z,100496.16
2022-12-12T12:00:55.060Z,100499.94
2022-12-12T12:03:27.588Z,100499.28
2022-12-12T12:06:13.354Z,100498.69
2022-12-12T12:09:07.212Z,100489.94
2022-12-12T12:11:41.036Z,100489.34
2022-12-12T12:14:28.904Z,100488.66
2022-12-12T12:17:17.047Z,100490.50
2022-12-12T12:20:25.472Z,100493.84
2022-12-12T12:23:07.154Z,100499.13
2022-12-12T12:25:49.182Z,100490.91
2022-12-12T12:28:37.588Z,100496.50
2022-12-12T12:31:30.611Z,100492.56
2022-12-12T12:34:12.256Z,100490.22
2022-12-12T12:36:57.694Z,100488.88
2022-12-12T12:39:32.638Z,100478.22
2022-12-12T12:42:09.197Z,100481.19
2022-12-12T12:44:55.272Z,100473.97
2022-12-12T12:47:26.694Z,100477.06
2022-12-12T12:50:06.209Z,100484.56
2022-12-12T12:52:36.555Z,100484.03
2022-12-12T12:55:04.328Z,100472.88
2022-12-12T12:57:34.855Z,100483.88
2022-12-12T13:00:06.729Z,100474.34
2022-12-12T13:03:02.613Z,100473.09
2022-12-12T13:05:57.029Z,100477.41
2022-12-12T13:08:34.723Z,100478.69
2022-12-12T13:11:07.110Z,100474.47
2022-12-12T13:13:38.638Z,100474.81
2022-12-12T13:16:05.915Z,100473.38
2022-12-12T13:18:44.439Z,100480.63
2022-12-12T13:21:21.890Z,100470.56
2022-12-12T13:23:57.060Z,100470.66
2022-12-12T13:26:30.031Z,100470.84
2022-12-12T13:29:01.573Z,100467.31
2022-12-12T13:31:39.814Z,100468.91
2022-12-12T13:34:09.118Z,100470.84
2022-12-12T13:36:38.691Z,100465.44
2022-12-12T13:39:06.855Z,100460.47
2022-12-12T13:41:56.473Z,100470.06
2022-12-12T13:44:35.454Z,100469.03
2022-12-12T13:47:03.668Z,100470.53
2022-12-12T13:49:45.245Z,100470.06
2022-12-12T13:52:32.256Z,100474.63
2022-12-12T13:55:31.085Z,100472.31
2022-12-12T13:57:57.488Z,100471.88
2022-12-12T14:00:25.493Z,100469.56
2022-12-12T14:03:01.276Z,100462.69
2022-12-12T14:05:35.596Z,100470.16
2022-12-12T14:08:06.113Z,100471.47
2022-12-12T14:10:32.403Z,100472.94
2022-12-12T14:13:19.540Z,100472.50
2022-12-12T14:15:46.916Z,100481.09
2022-12-12T14:18:30.303Z,100478.78
2022-12-12T14:21:02.212Z,100477.03
2022-12-12T14:23:49.704Z,100485.66
2022-12-12T14:26:28.134Z,100469.97
2022-12-12T14:29:16.316Z,100481.09
2022-12-12T14:31:56.251Z,100488.72
2022-12-12T14:34:47.492Z,100489.75
2022-12-12T14:37:16.874Z,100487.41
2022-12-12T14:39:50.837Z,100496.50
2022-12-12T14:43:15.604Z,100492.78
2022-12-12T14:45:33.977Z,100491.44
2022-12-12T14:48:20.037Z,100490.88
2022-12-12T14:50:53.982Z,100492.06
2022-12-12T14:53:23.120Z,100503.06
2022-12-12T14:55:55.779Z,100509.72
2022-12-12T14:58:26.280Z,100516.34
2022-12-12T15:00:55.647Z,100516.25
2022-12-12T15:03:28.544Z,100511.47
2022-12-12T15:06:27.206Z,100512.63
2022-12-12T15:08:55.140Z,100506.28
2022-12-12T15:11:24.107Z,100505.81
2022-12-12T15:13:58.289Z,100511.19
2022-12-12T15:16:42.818Z,100509.41
2022-12-12T15:19:16.121Z,100509.06
2022-12-12T15:21:43.532Z,100506.91
2022-12-12T15:24:18.074Z,100513.06
2022-12-12T15:26:46.129Z,100511.50
2022-12-12T15:29:16.588Z,100520.31
2022-12-12T15:31:44.632Z,100518.19
2022-12-12T15:34:34.531Z,100518.34
2022-12-12T15:37:31.277Z,100514.91
2022-12-12T15:40:01.324Z,100515.09
2022-12-12T15:42:28.269Z,100515.31
2022-12-12T15:44:54.837Z,100519.38
2022-12-12T15:47:21.393Z,100527.25
2022-12-12T15:49:47.779Z,100526.19
2022-12-12T15:52:27.117Z,100524.38
2022-12-12T15:54:56.255Z,100537.88
2022-12-12T15:57:27.401Z,100540.06
2022-12-12T15:59:56.433Z,100544.84
2022-12-12T16:02:25.124Z,100552.13
2022-12-12T16:05:19.013Z,100545.06
2022-12-12T16:07:45.704Z,100542.19
2022-12-12T16:10:12.126Z,100543.25
2022-12-12T16:12:56.527Z,100539.75
2022-12-12T16:15:31.487Z,100538.09
2022-12-12T16:18:15.709Z,100537.75
2022-12-12T16:20:47.551Z,100533.13
2022-12-12T16:23:29.062Z,100542.19
2022-12-12T16:25:55.874Z,100537.50
2022-12-12T16:28:27.549Z,100546.25
2022-12-12T16:30:58.610Z,100541.03
2022-12-12T16:33:31.633Z,100544.69
2022-12-12T16:36:00.681Z,100547.22
2022-12-12T16:38:30.346Z,100548.72
2022-12-12T16:40:59.924Z,100551.41
2022-12-12T16:43:26.611Z,100544.72
2022-12-12T16:45:54.618Z,100546.72
2022-12-12T16:48:32.533Z,100553.59
2022-12-12T16:51:02.140Z,100557.25
2022-12-12T16:53:28.529Z,100548.00
2022-12-12T16:55:55.196Z,100551.97
2022-12-12T16:58:21.586Z,100547.28
2022-12-12T17:00:49.005Z,100557.47
2022-12-12T17:03:16.749Z,100561.13
2022-12-12T17:05:44.817Z,100560.75
2022-12-12T17:08:11.388Z,100564.75
2022-12-12T17:10:38.334Z,100566.03
2022-12-12T17:13:06.261Z,100572.00
2022-12-12T17:15:32.775Z,100573.63
2022-12-12T17:17:59.963Z,100567.44
2022-12-12T17:20:27.298Z,100575.63
2022-12-12T17:23:29.056Z,100575.28
2022-12-12T17:26:02.529Z,100575.22
2022-12-12T17:28:31.908Z,100571.59
2022-12-12T17:30:58.334Z,100577.59
2022-12-12T17:33:25.488Z,100584.66
2022-12-12T17:36:03.420Z,100578.88
2022-12-12T17:38:32.637Z,100584.69
2022-12-12T17:41:03.165Z,100582.91
2022-12-12T17:43:29.723Z,100572.53
2022-12-12T17:45:57.862Z,100569.09
2022-12-12T17:48:24.356Z,100567.44
2022-12-12T17:50:58.898Z,100570.41
2022-12-12T17:53:25.427Z,100578.91
2022-12-12T17:56:00.862Z,100578.56
2022-12-12T17:58:32.023Z,100578.94
2022-12-12T18:00:58.634Z,100583.09
2022-12-12T18:03:25.056Z,100581.47
2022-12-12T18:05:51.525Z,100568.06
2022-12-12T18:08:18.266Z,100568.44
2022-12-12T18:10:44.760Z,100573.50
2022-12-12T18:13:11.142Z,100568.97
2022-12-12T18:15:37.586Z,100569.34
2022-12-12T18:18:04.034Z,100569.13
2022-12-12T18:20:31.559Z,100575.31
2022-12-12T18:22:58.039Z,100562.97
2022-12-12T18:25:25.126Z,100564.78
2022-12-12T18:27:51.536Z,100570.22
2022-12-12T18:30:18.082Z,100569.34
2022-12-12T18:32:46.153Z,100567.69
2022-12-12T18:35:12.510Z,100568.06
2022-12-12T18:37:38.947Z,100569.16
2022-12-12T18:40:07.012Z,100568.78
2022-12-12T18:42:33.392Z,100569.88
2022-12-12T18:44:59.812Z,100564.63
2022-12-12T18:47:26.404Z,100565.53
2022-12-12T18:49:52.773Z,100564.06
2022-12-12T18:52:19.162Z,100568.06
2022-12-12T18:54:45.556Z,100564.06
2022-12-12T18:57:11.922Z,100559.19
2022-12-12T18:59:38.562Z,100560.44
2022-12-12T19:02:05.014Z,100559.19
2022-12-12T19:04:31.487Z,100560.25
2022-12-12T19:06:58.632Z,100562.06
2022-12-12T19:09:24.992Z,100564.78
2022-12-12T19:11:56.860Z,100562.78
2022-12-12T19:14:36.057Z,100561.88
2022-12-12T19:17:14.566Z,100555.34
2022-12-12T19:19:40.939Z,100557.31
2022-12-12T19:22:24.823Z,100562.75
2022-12-12T19:24:53.741Z,100558.75
2022-12-12T19:27:20.125Z,100554.78
2022-12-12T19:29:46.557Z,100567.66
2022-12-12T19:32:12.964Z,100564.75
2022-12-12T19:34:39.740Z,100563.88
2022-12-12T19:37:06.127Z,100561.16
2022-12-12T19:39:32.544Z,100567.66
2022-12-12T19:41:58.910Z,100566.41
2022-12-12T19:44:25.284Z,100560.97
2022-12-12T19:46:51.676Z,100560.63
2022-12-12T19:49:18.080Z,100560.03
2022-12-12T19:51:45.550Z,100558.38
2022-12-12T19:54:17.637Z,100557.84
2022-12-12T19:56:44.347Z,100563.38
2022-12-12T19:59:12.775Z,100559.91
2022-12-12T20:01:39.369Z,100565.72
2022-12-12T20:04:07.152Z,100559.25
2022-12-12T20:06:40.917Z,100564.28
2022-12-12T20:09:11.653Z,100555.25
2022-12-12T20:11:38.316Z,100553.44
2022-12-12T20:14:05.002Z,100550.19
2022-12-12T20:16:31.492Z,100557.44
2022-12-12T20:18:59.635Z,100546.41
2022-12-12T20:21:59.725Z,100554.19
2022-12-12T20:24:15.544Z,100552.94
2022-12-12T20:26:42.534Z,100551.31
2022-12-12T20:29:09.266Z,100551.47
2022-12-12T20:31:38.278Z,100544.59
2022-12-12T20:34:04.916Z,100547.31
2022-12-12T20:36:35.340Z,100556.31
2022-12-12T20:39:07.123Z,100557.53
2022-12-12T20:41:36.241Z,100555.88
2022-12-12T20:44:02.785Z,100564.94
2022-12-12T20:46:34.420Z,100571.78
2022-12-12T20:49:02.616Z,100571.16
2022-12-12T20:54:21.397Z,100577.97
2022-12-12T20:56:50.959Z,100576.97
2022-12-12T20:59:17.337Z,100573.28
2022-12-12T21:01:43.883Z,100577.25
2022-12-12T21:04:10.512Z,100587.31
2022-12-12T21:06:39.435Z,100580.16
2022-12-12T21:09:07.815Z,100583.97
2022-12-12T21:11:34.455Z,100587.38
2022-12-12T21:14:00.923Z,100579.78
2022-12-12T21:16:29.954Z,100577.25
2022-12-12T21:18:59.113Z,100575.75
2022-12-12T21:21:25.986Z,100578.16
2022-12-12T21:23:53.065Z,100589.41
2022-12-12T21:26:28.219Z,100593.50
2022-12-12T21:28:55.630Z,100592.38
2022-12-12T21:31:25.620Z,100594.88
2022-12-12T21:33:52.491Z,100595.41
2022-12-12T21:36:21.665Z,100593.03
2022-12-12T21:38:48.919Z,100591.38
2022-12-12T21:41:17.613Z,100588.22
2022-12-12T21:43:44.595Z,100584.78
2022-12-12T21:46:13.212Z,100590.16
2022-12-12T21:48:39.875Z,100591.00
2022-12-12T21:51:08.325Z,100595.03
2022-12-12T21:53:35.379Z,100593.06
2022-12-12T21:56:10.918Z,100589.22
2022-12-12T21:58:38.474Z,100585.75
2022-12-12T22:01:12.292Z,100584.50
2022-12-12T22:03:38.982Z,100589.03
2022-12-12T22:06:20.210Z,100581.44
2022-12-12T22:08:47.526Z,100581.84
2022-12-12T22:11:34.012Z,100584.56
2022-12-12T22:14:02.122Z,100579.00
2022-12-12T22:16:33.283Z,100575.22
2022-12-12T22:19:05.584Z,100581.34
2022-12-12T22:21:33.597Z,100578.69
2022-12-12T22:24:00.489Z,100573.00
2022-12-12T22:26:26.775Z,100582.44
2022-12-12T22:28:58.203Z,100573.44
2022-12-12T22:31:26.938Z,100572.63
2022-12-12T22:33:56.319Z,100566.84
2022-12-12T22:36:26.281Z,100569.06
2022-12-12T22:38:54.045Z,100573.28
2022-12-12T22:41:20.523Z,100568.56
2022-12-12T22:43:46.949Z,100575.09
2022-12-12T22:46:13.685Z,100572.28
2022-12-12T22:48:40.055Z,100576.03
2022-12-12T22:51:13.878Z,100571.28
2022-12-12T22:53:44.167Z,100573.81
2022-12-12T22:56:11.220Z,100569.53
2022-12-12T22:58:37.698Z,100579.41
2022-12-12T23:01:11.604Z,100570.88
2022-12-12T23:03:38.335Z,100569.22
2022-12-12T23:06:26.128Z,100576.44
2022-12-12T23:08:55.681Z,100569.84
2022-12-12T23:11:23.346Z,100571.38
2022-12-12T23:13:53.555Z,100566.56
2022-12-12T23:16:21.537Z,100574.66
2022-12-12T23:18:48.278Z,100574.06
2022-12-12T23:21:17.600Z,100575.66
2022-12-12T23:23:45.860Z,100576.13
2022-12-12T23:26:22.999Z,100581.66
2022-12-12T23:28:50.056Z,100573.72
2022-12-12T23:31:25.877Z,100570.72
2022-12-12T23:33:53.643Z,100571.72
2022-12-12T23:36:20.334Z,100573.97
2022-12-12T23:38:46.750Z,100568.00
2022-12-12T23:41:15.092Z,100567.50
2022-12-12T23:43:42.265Z,100561.41
2022-12-12T23:46:29.763Z,100560.63
2022-12-12T23:48:59.310Z,100560.72
2022-12-12T23:51:28.024Z,100560.81
2022-12-12T23:53:58.915Z,100565.41
2022-12-12T23:56:26.256Z,100557.75
2022-12-12T23:58:53.463Z,100558.94
